Terminal Aerodrome Forecast
Issued by NWS

Home | Current Version | Previous Version | Text Only | Print | Product List | Glossary On
Versions: 1 2 3 4 5 6 7 8 9 10 11 12 13 14 15 16 17 18 19 20 21 22 23 24
000
FTUS42 KJAX 032357
TAFVQQ
TAF
KVQQ 032357Z 0400/0424 16004KT P6SM VCSH FEW030 BKN150 OVC250
     FM040500 00000KT P6SM -SHRA SCT030 BKN090 OVC200
      TEMPO 0407/0411 3SM +SHRA BR BKN025 OVC070
     FM041400 19005KT P6SM VCSH BKN025 BKN050 OVC090=

USA.gov is the U.S. government's official web portal to all federal, state and local government web resources and services.